Time;durP1;ratioP1;P1;durP2;ratioP2;P2;SDS_P1;SDS_P2;PMS_P1;PMS_P2;Temp;Humidity;BMP_temperature;BMP_pressure;BME280_temperature;BME280_humidity;BME280_pressure;Samples;Min_cycle;Max_cycle;Signal;HPM_P1;HPM_P2
2022/12/19 00:01:08;;;;;;;3.55;1.75;;;;;;;;;;5107105;28;20697;-43
2022/12/19 00:03:34;;;;;;;4.07;1.48;;;;;;;;;;5106932;28;20031;-43
2022/12/19 00:06:01;;;;;;;3.22;2.08;;;;;;;;;;5107154;28;20023;-44
2022/12/19 00:08:27;;;;;;;5.07;2.13;;;;;;;;;;5090809;28;20028;-43
2022/12/19 00:10:55;;;;;;;4.30;1.95;;;;;;;;;;5068500;28;20719;-43
2022/12/19 00:13:21;;;;;;;3.05;1.73;;;;;;;;;;5086398;28;20130;-43
2022/12/19 00:15:47;;;;;;;3.08;1.40;;;;;;;;;;5086771;28;20479;-44
2022/12/19 00:18:13;;;;;;;4.15;1.80;;;;;;;;;;5095352;28;20059;-44
2022/12/19 00:20:39;;;;;;;3.63;1.67;;;;;;;;;;5082071;28;20088;-43
2022/12/19 00:23:06;;;;;;;3.90;1.90;;;;;;;;;;5094886;28;20024;-43
2022/12/19 00:25:32;;;;;;;3.05;1.70;;;;;;;;;;5107998;28;20023;-43
2022/12/19 00:27:58;;;;;;;6.07;1.85;;;;;;;;;;5099741;28;20048;-45
2022/12/19 00:30:24;;;;;;;1.65;1.40;;;;;;;;;;5100518;28;20127;-43
2022/12/19 00:32:50;;;;;;;2.80;1.52;;;;;;;;;;5107377;28;20501;-43
2022/12/19 00:35:16;;;;;;;3.22;1.45;;;;;;;;;;5109731;28;20124;-43
2022/12/19 00:37:43;;;;;;;5.15;1.60;;;;;;;;;;5107823;28;20027;-44
2022/12/19 00:40:09;;;;;;;2.88;1.20;;;;;;;;;;5107589;28;20084;-44
2022/12/19 00:42:35;;;;;;;4.43;1.52;;;;;;;;;;5106231;28;20027;-43
2022/12/19 00:45:01;;;;;;;4.43;1.50;;;;;;;;;;5106629;28;20100;-43
2022/12/19 00:47:27;;;;;;;4.10;1.58;;;;;;;;;;5087809;28;20040;-43
2022/12/19 00:49:53;;;;;;;9.48;1.80;;;;;;;;;;5090962;28;20024;-44
2022/12/19 00:52:20;;;;;;;3.92;1.48;;;;;;;;;;5104735;28;20551;-44
2022/12/19 00:54:46;;;;;;;3.63;1.60;;;;;;;;;;5109682;28;20157;-43
2022/12/19 00:57:12;;;;;;;2.50;1.50;;;;;;;;;;5111271;28;20032;-43
2022/12/19 00:59:38;;;;;;;3.85;1.60;;;;;;;;;;5110840;28;20636;-44
2022/12/19 01:02:04;;;;;;;4.00;1.50;;;;;;;;;;5105042;28;20035;-44
2022/12/19 06:12:21;;;;;;;1.98;0.68;;;;;;;;;;5102069;28;20465;-44
2022/12/19 06:14:47;;;;;;;0.77;0.70;;;;;;;;;;5096909;28;20060;-43
2022/12/19 06:17:13;;;;;;;1.50;0.55;;;;;;;;;;5085875;28;20050;-44
2022/12/19 06:19:39;;;;;;;2.40;0.60;;;;;;;;;;5086640;28;20164;-43
2022/12/19 06:22:05;;;;;;;3.28;0.70;;;;;;;;;;5080484;28;20376;-44
2022/12/19 06:24:31;;;;;;;2.90;0.88;;;;;;;;;;5067558;28;20036;-44
2022/12/19 06:26:57;;;;;;;0.88;0.85;;;;;;;;;;5068220;28;20103;-46
2022/12/19 06:29:23;;;;;;;1.58;0.80;;;;;;;;;;5067722;28;20021;-44
2022/12/19 06:31:49;;;;;;;0.73;0.60;;;;;;;;;;5076429;28;20028;-45
2022/12/19 06:34:15;;;;;;;1.25;0.80;;;;;;;;;;5073838;28;20064;-45
2022/12/19 06:36:41;;;;;;;1.40;0.80;;;;;;;;;;5075915;28;20032;-44
2022/12/19 06:39:07;;;;;;;1.73;0.75;;;;;;;;;;5067563;28;20498;-44
2022/12/19 06:44:19;;;;;;;1.23;0.70;;;;;;;;;;5076332;28;20051;-45
2022/12/19 06:46:45;;;;;;;1.15;0.70;;;;;;;;;;5076743;28;20051;-43
2022/12/19 06:49:11;;;;;;;1.48;0.75;;;;;;;;;;5077785;28;20036;-44
2022/12/19 06:51:37;;;;;;;0.88;0.50;;;;;;;;;;5086186;28;20649;-44
2022/12/19 06:54:04;;;;;;;1.35;0.70;;;;;;;;;;5086056;28;20046;-45
2022/12/19 06:56:34;;;;;;;0.63;0.50;;;;;;;;;;5069324;28;20063;-45
2022/12/19 06:59:00;;;;;;;1.10;0.60;;;;;;;;;;5072370;28;20028;-44
2022/12/19 07:01:32;;;;;;;1.10;0.70;;;;;;;;;;5066969;28;20029;-47
2022/12/19 07:03:58;;;;;;;1.27;0.70;;;;;;;;;;5066786;28;20032;-44
2022/12/19 07:06:24;;;;;;;1.20;0.77;;;;;;;;;;5067302;28;20538;-45
2022/12/19 07:08:52;;;;;;;1.52;0.70;;;;;;;;;;5070872;28;20024;-45
2022/12/19 07:11:18;;;;;;;1.90;0.80;;;;;;;;;;5083701;28;20119;-44
2022/12/19 07:13:44;;;;;;;2.95;1.13;;;;;;;;;;5068870;28;20103;-44
2022/12/19 07:16:10;;;;;;;1.13;0.70;;;;;;;;;;5096440;28;20035;-44
2022/12/19 07:18:38;;;;;;;0.75;0.70;;;;;;;;;;5093329;28;20032;-44
2022/12/19 07:21:05;;;;;;;0.80;0.80;;;;;;;;;;5086452;28;20134;-44
2022/12/19 07:23:33;;;;;;;1.00;0.65;;;;;;;;;;5106162;28;20020;-44
2022/12/19 07:26:00;;;;;;;0.95;0.55;;;;;;;;;;5106118;28;20053;-44
2022/12/19 07:28:26;;;;;;;0.85;0.70;;;;;;;;;;5090547;28;20490;-44
2022/12/19 07:30:52;;;;;;;1.20;0.60;;;;;;;;;;5105700;28;20054;-44
2022/12/19 07:33:18;;;;;;;1.05;0.55;;;;;;;;;;5106994;28;20055;-44
2022/12/19 07:35:45;;;;;;;1.67;0.70;;;;;;;;;;5107577;28;20031;-44
2022/12/19 07:38:11;;;;;;;1.88;0.70;;;;;;;;;;5107231;28;20393;-44
2022/12/19 07:40:37;;;;;;;0.40;0.40;;;;;;;;;;5106660;28;20028;-44
2022/12/19 07:43:04;;;;;;;0.77;0.50;;;;;;;;;;5106365;28;20038;-44
2022/12/19 07:45:30;;;;;;;0.55;0.47;;;;;;;;;;5087901;28;20569;-45
2022/12/19 07:47:59;;;;;;;0.50;0.50;;;;;;;;;;5104040;28;20072;-44
2022/12/19 07:50:25;;;;;;;1.17;0.60;;;;;;;;;;5104746;28;20302;-44
2022/12/19 07:52:51;;;;;;;0.60;0.50;;;;;;;;;;5106993;28;20099;-44
2022/12/19 07:55:18;;;;;;;1.75;0.60;;;;;;;;;;5106790;28;20616;-44
2022/12/19 07:57:44;;;;;;;0.75;0.70;;;;;;;;;;5108396;28;20027;-44
2022/12/19 08:00:11;;;;;;;0.75;0.57;;;;;;;;;;5112269;28;20057;-45
2022/12/19 08:02:37;;;;;;;1.45;0.68;;;;;;;;;;5111193;28;20514;-45
2022/12/19 08:05:04;;;;;;;1.15;0.60;;;;;;;;;;5112325;28;20028;-45
2022/12/19 08:07:30;;;;;;;0.82;0.60;;;;;;;;;;5110140;28;20019;-44
2022/12/19 08:09:56;;;;;;;0.95;0.65;;;;;;;;;;5112009;28;20386;-46
2022/12/19 08:12:22;;;;;;;1.10;0.55;;;;;;;;;;5111753;28;20111;-44
2022/12/19 08:14:48;;;;;;;1.45;0.80;;;;;;;;;;5088573;28;20043;-45
2022/12/19 08:17:14;;;;;;;1.67;0.70;;;;;;;;;;5084430;28;20150;-46
2022/12/19 08:19:40;;;;;;;1.20;0.50;;;;;;;;;;5091963;28;20024;-44
2022/12/19 08:22:06;;;;;;;0.70;0.70;;;;;;;;;;5091422;28;20645;-44
2022/12/19 08:24:33;;;;;;;1.52;0.65;;;;;;;;;;5091440;28;20032;-44
2022/12/19 08:26:59;;;;;;;0.70;0.60;;;;;;;;;;5091309;28;20383;-44
2022/12/19 08:29:25;;;;;;;1.40;0.68;;;;;;;;;;5085494;28;20107;-44
2022/12/19 08:31:51;;;;;;;1.40;0.68;;;;;;;;;;5090048;28;20483;-45
2022/12/19 08:34:18;;;;;;;0.60;0.60;;;;;;;;;;5091300;28;20099;-45
2022/12/19 08:36:44;;;;;;;3.08;0.80;;;;;;;;;;5090815;28;20034;-44
2022/12/19 08:39:10;;;;;;;1.67;0.80;;;;;;;;;;5090018;28;20418;-45
2022/12/19 08:41:36;;;;;;;2.15;0.70;;;;;;;;;;5089023;28;20028;-43
2022/12/19 08:44:02;;;;;;;0.85;0.60;;;;;;;;;;5102514;28;20050;-42
2022/12/19 08:46:28;;;;;;;0.60;0.60;;;;;;;;;;5111139;28;20011;-42
2022/12/19 08:48:54;;;;;;;1.13;0.70;;;;;;;;;;5092722;28;20395;-43
2022/12/19 08:51:20;;;;;;;1.35;0.77;;;;;;;;;;5110649;28;20026;-42
2022/12/19 08:53:47;;;;;;;2.03;1.05;;;;;;;;;;5098163;28;20044;-41
2022/12/19 08:56:15;;;;;;;1.85;0.93;;;;;;;;;;5090937;28;20017;-45
2022/12/19 08:58:41;;;;;;;1.20;0.90;;;;;;;;;;5091011;28;20115;-42
2022/12/19 09:01:08;;;;;;;1.52;0.82;;;;;;;;;;5102124;28;20046;-42
2022/12/19 09:03:35;;;;;;;1.02;0.75;;;;;;;;;;5111111;28;20131;-43
2022/12/19 09:06:02;;;;;;;2.67;0.90;;;;;;;;;;5099269;28;20058;-43
2022/12/19 09:08:28;;;;;;;2.03;0.95;;;;;;;;;;5089134;28;20039;-44
2022/12/19 09:11:02;;;;;;;1.92;1.02;;;;;;;;;;5090352;28;20146;-43
2022/12/19 09:13:29;;;;;;;1.30;1.02;;;;;;;;;;5089976;28;20122;-41
2022/12/19 09:16:06;;;;;;;1.60;0.80;;;;;;;;;;5110911;28;20108;-42
2022/12/19 09:18:33;;;;;;;1.50;0.73;;;;;;;;;;5110540;28;20665;-43
2022/12/19 09:20:59;;;;;;;2.45;0.82;;;;;;;;;;5110355;28;20027;-42
2022/12/19 09:23:30;;;;;;;1.15;0.73;;;;;;;;;;5110011;28;20035;-42
2022/12/19 09:25:57;;;;;;;2.45;0.80;;;;;;;;;;5110387;28;20735;-45
2022/12/19 09:28:23;;;;;;;1.42;0.80;;;;;;;;;;5110351;28;20027;-42
2022/12/19 09:30:59;;;;;;;1.23;1.00;;;;;;;;;;5110427;28;20046;-42
2022/12/19 09:33:26;;;;;;;2.10;0.90;;;;;;;;;;5110200;28;20070;-43
2022/12/19 09:35:52;;;;;;;1.48;0.80;;;;;;;;;;5110955;28;20028;-44
2022/12/19 09:38:19;;;;;;;1.80;1.08;;;;;;;;;;5109967;28;20500;-42
2022/12/19 09:41:06;;;;;;;1.23;0.90;;;;;;;;;;5110238;28;20027;-46
2022/12/19 09:43:32;;;;;;;1.58;1.10;;;;;;;;;;5109970;28;20058;-42
2022/12/19 09:46:04;;;;;;;1.30;1.00;;;;;;;;;;5089910;28;20024;-45
2022/12/19 09:48:30;;;;;;;1.38;1.00;;;;;;;;;;5089797;28;20055;-43
2022/12/19 09:51:09;;;;;;;1.00;0.82;;;;;;;;;;5087597;28;20457;-43
2022/12/19 09:53:44;;;;;;;0.70;0.70;;;;;;;;;;5088249;28;20028;-44
2022/12/19 09:56:13;;;;;;;2.30;0.82;;;;;;;;;;5088681;28;20030;-43
2022/12/19 09:58:52;;;;;;;0.65;0.65;;;;;;;;;;5088730;28;20470;-44
2022/12/19 10:01:21;;;;;;;1.42;0.77;;;;;;;;;;5088509;28;20024;-43
2022/12/19 10:03:54;;;;;;;1.58;0.80;;;;;;;;;;5087799;28;20449;-47
2022/12/19 10:06:23;;;;;;;2.00;0.90;;;;;;;;;;5088327;28;20031;-43
2022/12/19 10:08:51;;;;;;;3.20;0.90;;;;;;;;;;5087978;28;20050;-43
2022/12/19 10:11:17;;;;;;;1.73;0.73;;;;;;;;;;5087636;28;20050;-42
2022/12/19 10:13:49;;;;;;;1.33;0.85;;;;;;;;;;5088031;28;20082;-45
2022/12/19 10:16:25;;;;;;;2.45;0.90;;;;;;;;;;5087951;28;20119;-43
2022/12/19 10:18:53;;;;;;;1.08;0.77;;;;;;;;;;5088033;28;20085;-42
2022/12/19 10:21:39;;;;;;;2.28;0.90;;;;;;;;;;5087562;28;20078;-44
2022/12/19 10:24:25;;;;;;;1.42;0.80;;;;;;;;;;5087517;28;20133;-42
2022/12/19 10:26:57;;;;;;;1.50;0.80;;;;;;;;;;5087606;28;20027;-43
2022/12/19 10:29:29;;;;;;;2.45;1.13;;;;;;;;;;5087646;28;20108;-42
2022/12/19 10:32:11;;;;;;;2.78;0.70;;;;;;;;;;5087164;28;20025;-46
2022/12/19 10:34:42;;;;;;;1.55;0.90;;;;;;;;;;5087367;28;20021;-42
2022/12/19 10:37:24;;;;;;;1.48;1.00;;;;;;;;;;5087636;28;20032;-43
2022/12/19 10:39:50;;;;;;;2.38;0.90;;;;;;;;;;5087521;28;20409;-42
2022/12/19 10:42:39;;;;;;;1.52;0.73;;;;;;;;;;5098901;28;20053;-44
2022/12/19 10:45:12;;;;;;;0.85;0.77;;;;;;;;;;5040248;28;20066;-44
2022/12/19 10:47:39;;;;;;;1.92;0.90;;;;;;;;;;5087110;28;20035;-43
2022/12/19 10:50:05;;;;;;;1.15;0.70;;;;;;;;;;5087320;28;20103;-42
2022/12/19 10:52:51;;;;;;;2.42;1.02;;;;;;;;;;5095521;28;20042;-43
2022/12/19 10:55:22;;;;;;;1.58;0.98;;;;;;;;;;5107316;28;20482;-43
2022/12/19 10:57:48;;;;;;;1.40;0.80;;;;;;;;;;5108100;28;20394;-44
2022/12/19 11:00:18;;;;;;;2.28;0.80;;;;;;;;;;5108353;28;20050;-43
2022/12/19 11:02:50;;;;;;;1.55;0.80;;;;;;;;;;5108736;28;20525;-44
2022/12/19 11:05:22;;;;;;;1.33;0.80;;;;;;;;;;5105264;28;20359;-44
2022/12/19 11:08:08;;;;;;;1.92;0.88;;;;;;;;;;5097837;28;20031;-45
2022/12/19 11:10:36;;;;;;;1.00;0.70;;;;;;;;;;5064669;28;20039;-45
2022/12/19 11:13:02;;;;;;;1.25;0.70;;;;;;;;;;5108784;28;20031;-44
2022/12/19 11:15:30;;;;;;;1.73;0.80;;;;;;;;;;5108082;28;20032;-45
2022/12/19 11:18:06;;;;;;;1.55;0.98;;;;;;;;;;5107015;28;20028;-43
2022/12/19 11:20:32;;;;;;;1.05;0.77;;;;;;;;;;5106991;28;20042;-46
2022/12/19 11:22:59;;;;;;;0.60;0.60;;;;;;;;;;5107157;28;20028;-45
2022/12/19 11:25:55;;;;;;;2.03;1.00;;;;;;;;;;5107092;28;20507;-43
2022/12/19 11:28:27;;;;;;;1.90;0.90;;;;;;;;;;5089495;28;20036;-42
2022/12/19 11:31:22;;;;;;;1.75;1.00;;;;;;;;;;5106683;28;20514;-46
2022/12/19 11:34:08;;;;;;;2.03;0.88;;;;;;;;;;5085426;28;20042;-47
2022/12/19 11:36:34;;;;;;;2.35;1.05;;;;;;;;;;5106719;28;20039;-46
2022/12/19 11:39:00;;;;;;;1.48;0.70;;;;;;;;;;5106801;28;20036;-45
2022/12/19 11:41:30;;;;;;;2.67;0.90;;;;;;;;;;5106582;28;20421;-48
2022/12/19 11:44:02;;;;;;;2.38;0.90;;;;;;;;;;5106553;28;20108;-46
2022/12/19 11:46:37;;;;;;;3.97;0.80;;;;;;;;;;5106815;28;20073;-47
2022/12/19 11:49:10;;;;;;;1.83;0.85;;;;;;;;;;5106727;28;20031;-46
2022/12/19 11:51:36;;;;;;;3.55;0.85;;;;;;;;;;5106640;28;20026;-46
2022/12/19 11:54:08;;;;;;;2.30;1.00;;;;;;;;;;5106548;28;20114;-45
2022/12/19 11:56:34;;;;;;;3.28;1.10;;;;;;;;;;5106597;28;20054;-48
2022/12/19 11:59:01;;;;;;;2.83;0.82;;;;;;;;;;5107085;28;20042;-48
2022/12/19 12:01:27;;;;;;;2.10;0.80;;;;;;;;;;5106952;28;20027;-46
2022/12/19 12:04:07;;;;;;;1.67;0.77;;;;;;;;;;5106731;28;20080;-48
2022/12/19 12:06:36;;;;;;;2.30;0.82;;;;;;;;;;5107032;28;20024;-46
2022/12/19 12:09:02;;;;;;;1.38;0.70;;;;;;;;;;5106880;28;20028;-47
2022/12/19 12:11:28;;;;;;;1.02;0.68;;;;;;;;;;5106829;28;20099;-45
2022/12/19 12:14:24;;;;;;;2.03;0.75;;;;;;;;;;5106698;28;20118;-46
2022/12/19 12:16:53;;;;;;;0.93;0.60;;;;;;;;;;5089821;28;20118;-47
2022/12/19 12:19:35;;;;;;;1.77;0.60;;;;;;;;;;5106897;28;20415;-45
2022/12/19 12:22:02;;;;;;;3.65;1.00;;;;;;;;;;5106990;28;20106;-45
2022/12/19 12:24:31;;;;;;;2.78;1.00;;;;;;;;;;5106865;28;20451;-48
2022/12/19 12:27:06;;;;;;;2.28;0.68;;;;;;;;;;5106895;28;20035;-46
2022/12/19 12:29:38;;;;;;;5.13;0.70;;;;;;;;;;5106821;28;20161;-46
2022/12/19 12:32:07;;;;;;;2.60;0.95;;;;;;;;;;5107310;28;20024;-47
2022/12/19 12:34:36;;;;;;;2.22;1.08;;;;;;;;;;5106808;28;20036;-46
2022/12/19 12:37:15;;;;;;;3.72;1.13;;;;;;;;;;5097493;28;20032;-45
2022/12/19 12:39:41;;;;;;;0.80;0.65;;;;;;;;;;5107895;28;20057;-47
2022/12/19 12:42:22;;;;;;;2.45;1.48;;;;;;;;;;5103990;28;20043;-49
2022/12/19 12:44:50;;;;;;;1.13;0.93;;;;;;;;;;5104868;28;20035;-46
2022/12/19 12:47:21;;;;;;;1.00;0.77;;;;;;;;;;5110898;28;20046;-49
2022/12/19 12:49:53;;;;;;;2.88;0.88;;;;;;;;;;5111094;28;20038;-46
2022/12/19 12:52:21;;;;;;;2.35;1.25;;;;;;;;;;5107711;28;20208;-49
2022/12/19 12:54:48;;;;;;;2.38;1.15;;;;;;;;;;5107166;28;20039;-46
2022/12/19 12:57:34;;;;;;;2.30;0.90;;;;;;;;;;5110766;28;20424;-44
2022/12/19 13:00:23;;;;;;;2.17;1.10;;;;;;;;;;5110436;28;20035;-46
2022/12/19 13:02:52;;;;;;;2.83;1.08;;;;;;;;;;5117356;27;20035;-47
2022/12/19 13:05:23;;;;;;;1.80;0.90;;;;;;;;;;5130276;27;20031;-48
2022/12/19 13:07:53;;;;;;;1.83;0.88;;;;;;;;;;5109744;28;20031;-47
2022/12/19 13:10:26;;;;;;;2.92;1.10;;;;;;;;;;5110386;28;20052;-48
2022/12/19 13:13:12;;;;;;;2.63;1.02;;;;;;;;;;5110401;28;20456;-46
2022/12/19 13:15:43;;;;;;;2.10;1.33;;;;;;;;;;5110243;28;20039;-45
2022/12/19 13:18:12;;;;;;;4.07;1.27;;;;;;;;;;5111105;28;20080;-47
2022/12/19 13:20:40;;;;;;;2.83;1.30;;;;;;;;;;5110537;28;20032;-47
2022/12/19 13:23:19;;;;;;;4.53;1.30;;;;;;;;;;5110710;28;20135;-46
2022/12/19 13:25:47;;;;;;;1.98;0.90;;;;;;;;;;5109177;28;20044;-49
2022/12/19 13:28:33;;;;;;;1.80;1.10;;;;;;;;;;5110518;28;20116;-46
2022/12/19 13:31:06;;;;;;;1.17;0.90;;;;;;;;;;5096027;28;20078;-46
2022/12/19 13:33:51;;;;;;;4.32;1.38;;;;;;;;;;5110536;28;20386;-48
2022/12/19 13:36:36;;;;;;;2.67;1.08;;;;;;;;;;5110408;28;20430;-45
2022/12/19 13:39:02;;;;;;;2.45;1.00;;;;;;;;;;5089613;28;20548;-48
2022/12/19 13:44:21;;;;;;;5.43;1.40;;;;;;;;;;5093475;28;20081;-46
2022/12/19 13:46:47;;;;;;;1.83;0.90;;;;;;;;;;5110139;28;20024;-46
2022/12/19 13:49:13;;;;;;;2.80;1.10;;;;;;;;;;5110269;28;20109;-46
2022/12/19 13:51:45;;;;;;;3.00;1.10;;;;;;;;;;5110107;28;20278;-46
2022/12/19 13:54:33;;;;;;;1.38;0.80;;;;;;;;;;5105349;28;20110;-46
2022/12/19 13:56:59;;;;;;;3.78;1.10;;;;;;;;;;5104829;28;20063;-47
2022/12/19 13:59:26;;;;;;;2.83;0.77;;;;;;;;;;5109573;28;20667;-46
2022/12/19 14:01:53;;;;;;;2.03;1.00;;;;;;;;;;5109690;28;20042;-48
2022/12/19 14:04:26;;;;;;;2.97;1.30;;;;;;;;;;5109596;28;20023;-46
2022/12/19 14:07:04;;;;;;;5.85;1.33;;;;;;;;;;5108743;28;20034;-46
2022/12/19 14:09:33;;;;;;;3.88;1.27;;;;;;;;;;5108911;28;20020;-47
2022/12/19 14:12:00;;;;;;;3.70;1.02;;;;;;;;;;5109695;28;20028;-46
2022/12/19 14:17:13;;;;;;;1.20;0.93;;;;;;;;;;5122633;27;20050;-46
2022/12/19 14:19:42;;;;;;;1.05;0.88;;;;;;;;;;5130192;27;20470;-47
2022/12/19 14:22:11;;;;;;;3.00;1.10;;;;;;;;;;5130007;27;20431;-45
2022/12/19 14:24:38;;;;;;;1.25;0.80;;;;;;;;;;5129725;27;20430;-46
2022/12/19 14:27:08;;;;;;;2.90;1.02;;;;;;;;;;5129985;27;20098;-48
2022/12/19 14:29:39;;;;;;;2.28;0.95;;;;;;;;;;5123340;27;20139;-46
2022/12/19 14:32:07;;;;;;;1.90;0.93;;;;;;;;;;5119075;27;20423;-48
2022/12/19 14:34:33;;;;;;;4.13;1.30;;;;;;;;;;5129847;27;20054;-45
2022/12/19 14:36:59;;;;;;;4.15;1.10;;;;;;;;;;5129817;27;20032;-45
2022/12/19 14:39:29;;;;;;;2.42;1.10;;;;;;;;;;5129427;27;20034;-49
2022/12/19 14:44:46;;;;;;;2.97;1.00;;;;;;;;;;5113326;27;20092;-49
2022/12/19 14:47:14;;;;;;;3.88;0.80;;;;;;;;;;5130032;27;20019;-49
2022/12/19 14:49:40;;;;;;;1.80;1.00;;;;;;;;;;5121667;27;20048;-45
2022/12/19 14:52:26;;;;;;;2.15;1.08;;;;;;;;;;5109742;27;20033;-45
2022/12/19 14:55:11;;;;;;;3.45;1.00;;;;;;;;;;5087807;27;20035;-46
2022/12/19 14:57:37;;;;;;;3.10;1.13;;;;;;;;;;5096879;27;20124;-46
2022/12/19 15:00:20;;;;;;;3.60;1.00;;;;;;;;;;5104595;28;20652;-44
2022/12/19 15:02:47;;;;;;;3.05;1.17;;;;;;;;;;5101327;28;20106;-44
2022/12/19 15:05:15;;;;;;;1.55;0.98;;;;;;;;;;5108371;28;20019;-46
2022/12/19 15:07:43;;;;;;;2.10;0.90;;;;;;;;;;5107217;28;20030;-45
2022/12/19 15:10:12;;;;;;;3.05;1.23;;;;;;;;;;5089487;28;20531;-44
2022/12/19 15:15:44;;;;;;;2.13;1.00;;;;;;;;;;5106482;28;20406;-44
2022/12/19 15:18:17;;;;;;;2.45;1.50;;;;;;;;;;5106687;27;20605;-44
2022/12/19 15:20:43;;;;;;;4.57;1.30;;;;;;;;;;5110412;27;20110;-45
2022/12/19 15:23:09;;;;;;;2.83;0.95;;;;;;;;;;5106487;28;20115;-47
2022/12/19 15:25:35;;;;;;;3.58;1.20;;;;;;;;;;5107208;28;20027;-44
2022/12/19 15:28:01;;;;;;;4.53;1.40;;;;;;;;;;5104307;28;20513;-45
2022/12/19 15:30:29;;;;;;;2.50;1.15;;;;;;;;;;5103187;28;20387;-45
2022/12/19 15:32:56;;;;;;;3.10;1.13;;;;;;;;;;5104922;28;20087;-46
2022/12/19 15:35:22;;;;;;;1.90;1.33;;;;;;;;;;5105281;28;20056;-46
2022/12/19 15:37:48;;;;;;;2.53;1.00;;;;;;;;;;5105217;28;20754;-44
2022/12/19 15:40:16;;;;;;;2.63;1.20;;;;;;;;;;5106896;28;20027;-44
2022/12/19 15:42:43;;;;;;;1.83;1.02;;;;;;;;;;5106539;28;20035;-45
2022/12/19 15:45:15;;;;;;;3.10;1.00;;;;;;;;;;5104132;28;20176;-44
2022/12/19 15:47:42;;;;;;;3.40;1.00;;;;;;;;;;5112355;28;20096;-46
2022/12/19 15:50:22;;;;;;;2.05;0.93;;;;;;;;;;5107221;28;20031;-46
2022/12/19 15:52:48;;;;;;;4.00;1.00;;;;;;;;;;5104250;28;20020;-49
2022/12/19 15:55:18;;;;;;;2.20;1.00;;;;;;;;;;5102835;28;20364;-49
2022/12/19 15:57:48;;;;;;;4.55;1.05;;;;;;;;;;5098693;28;20046;-46
2022/12/19 16:00:22;;;;;;;1.55;1.10;;;;;;;;;;5106902;28;20077;-45
2022/12/19 16:02:48;;;;;;;3.77;1.27;;;;;;;;;;5103237;28;20024;-45
2022/12/19 16:05:15;;;;;;;2.67;1.52;;;;;;;;;;5106082;28;20390;-46
2022/12/19 16:07:41;;;;;;;1.38;1.10;;;;;;;;;;5110382;28;20042;-46
2022/12/19 16:10:09;;;;;;;2.30;1.00;;;;;;;;;;5105811;28;20538;-45
2022/12/19 16:12:37;;;;;;;1.55;1.00;;;;;;;;;;5106715;28;20378;-45
2022/12/19 16:15:04;;;;;;;1.20;1.00;;;;;;;;;;5102985;28;20036;-47
2022/12/19 16:17:31;;;;;;;1.90;1.08;;;;;;;;;;5106014;28;20645;-45
2022/12/19 16:19:58;;;;;;;2.15;1.10;;;;;;;;;;5110555;28;20026;-46
2022/12/19 16:22:26;;;;;;;1.80;1.20;;;;;;;;;;5106434;28;20374;-46
2022/12/19 16:24:52;;;;;;;2.85;1.33;;;;;;;;;;5108344;28;20119;-46
2022/12/19 16:27:24;;;;;;;1.92;1.10;;;;;;;;;;5112639;28;20084;-45
2022/12/19 16:29:50;;;;;;;3.03;1.42;;;;;;;;;;5112402;27;20096;-47
2022/12/19 16:32:17;;;;;;;2.88;1.35;;;;;;;;;;5092900;28;20226;-47
2022/12/19 16:34:43;;;;;;;2.70;1.20;;;;;;;;;;5105852;27;20172;-46
2022/12/19 16:37:10;;;;;;;2.55;1.23;;;;;;;;;;5112698;28;20027;-45
2022/12/19 16:39:36;;;;;;;2.42;1.10;;;;;;;;;;5111146;28;20111;-45
2022/12/19 16:42:03;;;;;;;2.00;0.93;;;;;;;;;;5093782;28;20401;-47
2022/12/19 16:44:31;;;;;;;1.55;1.05;;;;;;;;;;5090918;28;20035;-45
2022/12/19 16:46:57;;;;;;;2.30;1.20;;;;;;;;;;5091929;28;20623;-49
2022/12/19 16:49:23;;;;;;;1.98;1.10;;;;;;;;;;5095066;28;20158;-48
2022/12/19 16:51:50;;;;;;;3.15;1.30;;;;;;;;;;5111729;28;20119;-46
2022/12/19 16:54:16;;;;;;;2.88;1.17;;;;;;;;;;5112213;28;20756;-47
2022/12/19 16:56:50;;;;;;;2.20;0.98;;;;;;;;;;5106960;28;20055;-46
2022/12/19 16:59:23;;;;;;;4.03;1.23;;;;;;;;;;5108733;28;20028;-47
2022/12/19 17:01:49;;;;;;;2.45;1.25;;;;;;;;;;5109033;28;20441;-46
2022/12/19 17:04:17;;;;;;;4.25;1.27;;;;;;;;;;5109945;28;20443;-49
2022/12/19 17:06:43;;;;;;;2.08;1.10;;;;;;;;;;5111149;28;20031;-50
2022/12/19 17:09:14;;;;;;;3.00;0.95;;;;;;;;;;5112120;28;20185;-49
2022/12/19 17:11:40;;;;;;;3.25;0.80;;;;;;;;;;5112031;28;20451;-46
2022/12/19 17:14:10;;;;;;;1.80;0.90;;;;;;;;;;5109185;28;20062;-47
2022/12/19 17:16:36;;;;;;;2.42;1.20;;;;;;;;;;5110630;28;20106;-46
2022/12/19 17:19:03;;;;;;;1.83;1.08;;;;;;;;;;5103057;28;20053;-49
2022/12/19 17:21:29;;;;;;;3.42;1.00;;;;;;;;;;5102451;28;20038;-46
2022/12/19 17:23:55;;;;;;;1.35;1.00;;;;;;;;;;5099382;28;20034;-46
2022/12/19 17:26:22;;;;;;;2.42;1.00;;;;;;;;;;5108914;28;20477;-47
2022/12/19 17:28:48;;;;;;;1.90;1.00;;;;;;;;;;5112331;28;20020;-47
2022/12/19 17:31:38;;;;;;;1.73;1.17;;;;;;;;;;5111785;28;20035;-44
2022/12/19 17:34:07;;;;;;;2.88;1.20;;;;;;;;;;5110007;28;20031;-45
2022/12/19 17:36:33;;;;;;;1.90;1.13;;;;;;;;;;5111087;28;20035;-47
2022/12/19 17:39:00;;;;;;;1.80;1.05;;;;;;;;;;5111496;28;20150;-45
2022/12/19 17:41:26;;;;;;;3.15;1.02;;;;;;;;;;5111247;28;20092;-45
2022/12/19 17:43:53;;;;;;;2.17;1.08;;;;;;;;;;5109590;28;20028;-49
2022/12/19 17:46:20;;;;;;;2.10;1.05;;;;;;;;;;5100054;28;20024;-46
2022/12/19 17:48:50;;;;;;;2.05;0.88;;;;;;;;;;5106918;28;20028;-45
2022/12/19 17:51:19;;;;;;;3.25;1.13;;;;;;;;;;5108364;28;20111;-46
2022/12/19 17:53:45;;;;;;;1.58;0.90;;;;;;;;;;5093112;28;20418;-47
2022/12/19 17:56:15;;;;;;;1.70;1.40;;;;;;;;;;5105453;28;20047;-47
2022/12/19 17:58:43;;;;;;;2.72;1.27;;;;;;;;;;5097206;28;20024;-44
2022/12/19 18:01:27;;;;;;;1.38;1.10;;;;;;;;;;5109071;28;20505;-46
2022/12/19 18:03:55;;;;;;;3.22;1.42;;;;;;;;;;5107042;28;20394;-44
2022/12/19 18:06:21;;;;;;;2.25;1.30;;;;;;;;;;5106435;28;20081;-46
2022/12/19 18:08:47;;;;;;;1.83;1.20;;;;;;;;;;5106001;28;20070;-49
2022/12/19 18:11:18;;;;;;;1.52;1.15;;;;;;;;;;5094900;28;20074;-44
2022/12/19 18:13:44;;;;;;;2.33;1.60;;;;;;;;;;5087054;28;20399;-45
2022/12/19 18:16:12;;;;;;;2.35;1.20;;;;;;;;;;5107390;28;20560;-45
2022/12/19 18:18:39;;;;;;;2.78;1.50;;;;;;;;;;5104270;28;20047;-48
2022/12/19 18:21:05;;;;;;;1.48;1.38;;;;;;;;;;5105919;28;20039;-45
2022/12/19 18:23:32;;;;;;;1.92;1.10;;;;;;;;;;5091267;28;20546;-48
2022/12/19 18:25:58;;;;;;;2.88;1.40;;;;;;;;;;5091480;28;20024;-46
2022/12/19 18:28:24;;;;;;;1.23;1.10;;;;;;;;;;5106411;28;20110;-46
2022/12/19 18:30:51;;;;;;;2.78;1.58;;;;;;;;;;5105041;28;20054;-45
2022/12/19 18:33:22;;;;;;;1.70;1.05;;;;;;;;;;5106592;28;20063;-45
2022/12/19 18:35:50;;;;;;;1.42;1.00;;;;;;;;;;5106794;28;20054;-49
2022/12/19 18:38:21;;;;;;;2.45;1.13;;;;;;;;;;5106172;28;20031;-44
2022/12/19 18:40:47;;;;;;;1.13;0.77;;;;;;;;;;5102381;28;20088;-44
2022/12/19 18:43:15;;;;;;;1.80;1.13;;;;;;;;;;5103629;28;20071;-46
2022/12/19 18:45:42;;;;;;;2.42;0.95;;;;;;;;;;5104911;28;20034;-46
2022/12/19 18:48:24;;;;;;;3.08;0.90;;;;;;;;;;5088008;28;20047;-46
2022/12/19 18:50:50;;;;;;;1.40;0.98;;;;;;;;;;5105927;28;20031;-45
2022/12/19 18:53:18;;;;;;;2.13;1.08;;;;;;;;;;5104111;28;20477;-50
2022/12/19 18:55:44;;;;;;;1.52;1.00;;;;;;;;;;5082929;28;20452;-48
2022/12/19 18:58:11;;;;;;;2.63;1.20;;;;;;;;;;5106223;28;20447;-50
2022/12/19 19:00:38;;;;;;;3.55;1.20;;;;;;;;;;5105470;28;20056;-49
2022/12/19 19:03:07;;;;;;;1.52;0.88;;;;;;;;;;5105136;28;20135;-50
2022/12/19 19:05:34;;;;;;;2.05;0.80;;;;;;;;;;5068984;28;20032;-47
2022/12/19 19:08:17;;;;;;;1.15;0.80;;;;;;;;;;5094021;28;20026;-51
2022/12/19 19:10:45;;;;;;;0.77;0.70;;;;;;;;;;5084338;28;20058;-50
2022/12/19 19:13:11;;;;;;;2.53;1.15;;;;;;;;;;5086679;28;20032;-49
2022/12/19 19:15:41;;;;;;;1.48;0.80;;;;;;;;;;5085243;28;20035;-47
2022/12/19 19:18:08;;;;;;;0.95;0.85;;;;;;;;;;5102982;28;20094;-50
2022/12/19 19:20:37;;;;;;;2.38;0.80;;;;;;;;;;5102541;28;20027;-46
2022/12/19 19:23:07;;;;;;;2.40;1.00;;;;;;;;;;5093468;28;20569;-48
2022/12/19 19:25:33;;;;;;;2.15;1.10;;;;;;;;;;5102036;28;20100;-47
2022/12/19 19:28:00;;;;;;;1.35;0.90;;;;;;;;;;5104090;28;20031;-47
2022/12/19 19:30:28;;;;;;;1.55;0.82;;;;;;;;;;5104350;28;20028;-48
2022/12/19 19:32:57;;;;;;;0.63;0.63;;;;;;;;;;5101523;28;20024;-48
2022/12/19 19:35:25;;;;;;;1.45;0.80;;;;;;;;;;5103887;28;20058;-47
2022/12/19 19:37:52;;;;;;;0.98;0.85;;;;;;;;;;5103046;28;20027;-48
2022/12/19 19:40:18;;;;;;;1.55;0.80;;;;;;;;;;5104438;28;20035;-47
2022/12/19 19:42:45;;;;;;;0.75;0.75;;;;;;;;;;5086246;28;20035;-49
2022/12/19 19:45:12;;;;;;;1.50;0.93;;;;;;;;;;5086439;28;20548;-47
2022/12/19 19:47:41;;;;;;;2.15;1.20;;;;;;;;;;5087061;28;20466;-49
2022/12/19 19:50:07;;;;;;;2.58;0.95;;;;;;;;;;5105309;28;20016;-47
2022/12/19 19:52:33;;;;;;;1.08;0.95;;;;;;;;;;5086415;28;20024;-48
2022/12/19 19:54:59;;;;;;;1.35;0.90;;;;;;;;;;5109739;28;20031;-49
2022/12/19 19:57:25;;;;;;;1.65;1.15;;;;;;;;;;5108851;28;20092;-50
2022/12/19 19:59:51;;;;;;;2.85;1.25;;;;;;;;;;5102412;28;20024;-50
2022/12/19 20:02:17;;;;;;;1.73;1.05;;;;;;;;;;5109343;28;20103;-47
2022/12/19 20:04:44;;;;;;;1.52;0.98;;;;;;;;;;5101425;28;20031;-50
2022/12/19 20:07:10;;;;;;;1.15;0.80;;;;;;;;;;5102175;28;20044;-46
2022/12/19 20:09:36;;;;;;;0.98;0.77;;;;;;;;;;5085510;28;20019;-48
2022/12/19 20:12:02;;;;;;;1.40;0.90;;;;;;;;;;5108703;28;20042;-47
2022/12/19 20:14:29;;;;;;;1.67;0.98;;;;;;;;;;5109285;28;20043;-48
2022/12/19 20:16:55;;;;;;;1.17;1.00;;;;;;;;;;5109061;28;20024;-48